sensor_id;sensor_type;location;lat;lon;timestamp;pressure;altitude;pressure_sealevel;temperature;humidity
28448;BME280;15675;52.870;-1.416;2022-08-16T00:01:10;99985.97;;;20.11;100.00
28448;BME280;15675;52.870;-1.416;2022-08-16T00:03:36;99985.94;;;19.93;100.00
28448;BME280;15675;52.870;-1.416;2022-08-16T00:06:02;99996.19;;;19.80;100.00
28448;BME280;15675;52.870;-1.416;2022-08-16T00:08:28;99997.63;;;20.07;100.00
28448;BME280;15675;52.870;-1.416;2022-08-16T00:10:54;99998.00;;;20.35;100.00
28448;BME280;15675;52.870;-1.416;2022-08-16T00:13:19;99997.59;;;20.43;100.00
28448;BME280;15675;52.870;-1.416;2022-08-16T00:15:47;100003.94;;;20.58;100.00
28448;BME280;15675;52.870;-1.416;2022-08-16T00:18:15;100002.50;;;20.70;100.00
28448;BME280;15675;52.870;-1.416;2022-08-16T00:20:43;100006.16;;;20.66;100.00
28448;BME280;15675;52.870;-1.416;2022-08-16T00:23:09;100006.03;;;20.69;100.00
28448;BME280;15675;52.870;-1.416;2022-08-16T00:25:35;100013.88;;;20.71;100.00
28448;BME280;15675;52.870;-1.416;2022-08-16T00:28:01;100008.78;;;20.85;100.00
28448;BME280;15675;52.870;-1.416;2022-08-16T00:30:28;100008.03;;;20.64;100.00
28448;BME280;15675;52.870;-1.416;2022-08-16T00:32:55;99998.84;;;20.73;100.00
28448;BME280;15675;52.870;-1.416;2022-08-16T00:35:28;99996.09;;;20.57;100.00
28448;BME280;15675;52.870;-1.416;2022-08-16T00:37:55;99998.94;;;20.52;100.00
28448;BME280;15675;52.870;-1.416;2022-08-16T00:40:30;99998.50;;;20.61;100.00
28448;BME280;15675;52.870;-1.416;2022-08-16T00:42:56;99999.47;;;20.78;100.00
28448;BME280;15675;52.870;-1.416;2022-08-16T00:48:20;99992.34;;;20.80;100.00
28448;BME280;15675;52.870;-1.416;2022-08-16T00:50:47;99990.88;;;20.74;100.00
28448;BME280;15675;52.870;-1.416;2022-08-16T00:53:15;99990.34;;;20.48;100.00
28448;BME280;15675;52.870;-1.416;2022-08-16T00:55:45;99993.22;;;20.25;100.00
28448;BME280;15675;52.870;-1.416;2022-08-16T00:58:12;99991.69;;;20.02;100.00
28448;BME280;15675;52.870;-1.416;2022-08-16T01:00:40;100008.06;;;20.08;100.00
28448;BME280;15675;52.870;-1.416;2022-08-16T01:03:09;99999.94;;;20.13;100.00
28448;BME280;15675;52.870;-1.416;2022-08-16T01:05:36;100001.69;;;20.31;100.00
28448;BME280;15675;52.870;-1.416;2022-08-16T01:08:03;100001.22;;;19.85;100.00
28448;BME280;15675;52.870;-1.416;2022-08-16T01:10:30;99994.56;;;19.57;100.00
28448;BME280;15675;52.870;-1.416;2022-08-16T01:13:04;99992.00;;;19.16;100.00
28448;BME280;15675;52.870;-1.416;2022-08-16T01:15:31;100000.88;;;19.13;100.00
28448;BME280;15675;52.870;-1.416;2022-08-16T01:17:58;100003.94;;;19.23;100.00
28448;BME280;15675;52.870;-1.416;2022-08-16T01:20:26;99995.78;;;19.29;100.00
28448;BME280;15675;52.870;-1.416;2022-08-16T01:25:57;99993.47;;;19.82;100.00
28448;BME280;15675;52.870;-1.416;2022-08-16T01:28:23;99992.19;;;20.10;100.00
28448;BME280;15675;52.870;-1.416;2022-08-16T01:30:54;99981.44;;;20.51;100.00
28448;BME280;15675;52.870;-1.416;2022-08-16T01:33:21;99981.41;;;20.70;100.00
28448;BME280;15675;52.870;-1.416;2022-08-16T01:40:45;99978.06;;;21.01;93.21
28448;BME280;15675;52.870;-1.416;2022-08-16T01:43:11;99983.34;;;21.01;92.26
28448;BME280;15675;52.870;-1.416;2022-08-16T01:45:38;99978.06;;;21.01;94.14
28448;BME280;15675;52.870;-1.416;2022-08-16T01:48:03;99983.94;;;20.89;96.47
28448;BME280;15675;52.870;-1.416;2022-08-16T01:50:29;99986.59;;;20.89;99.20
28448;BME280;15675;52.870;-1.416;2022-08-16T01:52:56;99983.75;;;20.40;100.00
28448;BME280;15675;52.870;-1.416;2022-08-16T01:55:23;99988.41;;;20.52;100.00
28448;BME280;15675;52.870;-1.416;2022-08-16T01:57:49;99993.47;;;20.20;100.00
28448;BME280;15675;52.870;-1.416;2022-08-16T02:00:15;100008.94;;;19.50;100.00
28448;BME280;15675;52.870;-1.416;2022-08-16T02:02:42;100003.69;;;19.09;100.00
28448;BME280;15675;52.870;-1.416;2022-08-16T02:05:09;100010.91;;;19.04;100.00
28448;BME280;15675;52.870;-1.416;2022-08-16T02:07:35;100014.34;;;19.06;100.00
28448;BME280;15675;52.870;-1.416;2022-08-16T02:10:05;100020.53;;;19.25;100.00
28448;BME280;15675;52.870;-1.416;2022-08-16T02:12:32;100012.91;;;18.99;100.00
28448;BME280;15675;52.870;-1.416;2022-08-16T02:14:58;100022.41;;;19.42;100.00
28448;BME280;15675;52.870;-1.416;2022-08-16T02:17:24;100018.03;;;19.62;100.00
28448;BME280;15675;52.870;-1.416;2022-08-16T02:19:51;100029.19;;;19.88;100.00
28448;BME280;15675;52.870;-1.416;2022-08-16T02:22:21;100018.25;;;19.97;100.00
28448;BME280;15675;52.870;-1.416;2022-08-16T02:24:47;100011.72;;;19.87;100.00
28448;BME280;15675;52.870;-1.416;2022-08-16T02:27:14;100003.50;;;19.34;100.00
28448;BME280;15675;52.870;-1.416;2022-08-16T02:29:40;100014.19;;;19.29;100.00
28448;BME280;15675;52.870;-1.416;2022-08-16T02:32:08;100016.91;;;19.67;100.00
28448;BME280;15675;52.870;-1.416;2022-08-16T02:34:34;100015.72;;;19.75;100.00
28448;BME280;15675;52.870;-1.416;2022-08-16T02:37:00;100001.38;;;19.22;100.00
28448;BME280;15675;52.870;-1.416;2022-08-16T02:39:26;100008.88;;;19.31;100.00
28448;BME280;15675;52.870;-1.416;2022-08-16T02:41:52;100008.81;;;19.33;100.00
28448;BME280;15675;52.870;-1.416;2022-08-16T02:44:18;100008.63;;;19.56;100.00
28448;BME280;15675;52.870;-1.416;2022-08-16T02:46:44;100005.66;;;19.24;100.00
28448;BME280;15675;52.870;-1.416;2022-08-16T02:49:11;100002.63;;;19.34;100.00
28448;BME280;15675;52.870;-1.416;2022-08-16T02:51:38;100003.28;;;19.18;100.00
28448;BME280;15675;52.870;-1.416;2022-08-16T02:54:05;99993.88;;;19.12;100.00
28448;BME280;15675;52.870;-1.416;2022-08-16T02:56:31;99999.66;;;19.21;100.00
28448;BME280;15675;52.870;-1.416;2022-08-16T02:58:57;99993.53;;;18.79;100.00
28448;BME280;15675;52.870;-1.416;2022-08-16T03:01:25;100008.78;;;18.49;100.00
28448;BME280;15675;52.870;-1.416;2022-08-16T03:03:53;100011.47;;;18.47;100.00
28448;BME280;15675;52.870;-1.416;2022-08-16T03:06:20;100014.88;;;18.49;100.00
28448;BME280;15675;52.870;-1.416;2022-08-16T03:08:47;100016.47;;;18.53;100.00
28448;BME280;15675;52.870;-1.416;2022-08-16T03:11:14;100019.19;;;17.82;100.00
28448;BME280;15675;52.870;-1.416;2022-08-16T03:13:42;100019.94;;;17.62;100.00
28448;BME280;15675;52.870;-1.416;2022-08-16T03:16:08;100028.34;;;17.47;100.00
28448;BME280;15675;52.870;-1.416;2022-08-16T03:18:35;100028.41;;;17.45;100.00
28448;BME280;15675;52.870;-1.416;2022-08-16T03:21:00;100032.94;;;17.40;100.00
28448;BME280;15675;52.870;-1.416;2022-08-16T03:23:26;100039.22;;;17.36;100.00
28448;BME280;15675;52.870;-1.416;2022-08-16T03:25:52;100046.34;;;17.32;100.00
28448;BME280;15675;52.870;-1.416;2022-08-16T03:28:18;100048.53;;;17.45;100.00
28448;BME280;15675;52.870;-1.416;2022-08-16T03:30:45;100052.44;;;17.58;100.00
28448;BME280;15675;52.870;-1.416;2022-08-16T03:33:11;100052.06;;;17.69;100.00
28448;BME280;15675;52.870;-1.416;2022-08-16T03:35:38;100052.91;;;17.69;100.00
28448;BME280;15675;52.870;-1.416;2022-08-16T03:38:11;100060.25;;;17.59;100.00
28448;BME280;15675;52.870;-1.416;2022-08-16T03:40:37;100061.78;;;17.41;100.00
28448;BME280;15675;52.870;-1.416;2022-08-16T03:43:06;100062.50;;;17.45;100.00
28448;BME280;15675;52.870;-1.416;2022-08-16T03:45:32;100079.63;;;17.55;100.00
28448;BME280;15675;52.870;-1.416;2022-08-16T03:47:59;100073.34;;;17.34;100.00
28448;BME280;15675;52.870;-1.416;2022-08-16T03:50:25;100076.16;;;17.30;100.00
28448;BME280;15675;52.870;-1.416;2022-08-16T03:52:50;100072.63;;;17.04;100.00
28448;BME280;15675;52.870;-1.416;2022-08-16T03:55:16;100081.50;;;17.00;100.00
28448;BME280;15675;52.870;-1.416;2022-08-16T03:57:42;100090.31;;;16.99;100.00
28448;BME280;15675;52.870;-1.416;2022-08-16T04:00:12;100099.34;;;16.88;100.00
28448;BME280;15675;52.870;-1.416;2022-08-16T04:02:40;100115.06;;;16.88;100.00
28448;BME280;15675;52.870;-1.416;2022-08-16T04:05:07;100109.56;;;16.98;100.00
28448;BME280;15675;52.870;-1.416;2022-08-16T04:07:33;100108.69;;;16.97;100.00
28448;BME280;15675;52.870;-1.416;2022-08-16T04:09:59;100126.75;;;17.06;100.00
28448;BME280;15675;52.870;-1.416;2022-08-16T04:12:45;100109.66;;;16.95;100.00
28448;BME280;15675;52.870;-1.416;2022-08-16T04:15:31;100110.72;;;16.89;100.00
28448;BME280;15675;52.870;-1.416;2022-08-16T04:18:16;100116.81;;;16.60;100.00
28448;BME280;15675;52.870;-1.416;2022-08-16T04:20:42;100117.19;;;16.47;100.00
28448;BME280;15675;52.870;-1.416;2022-08-16T04:23:08;100126.56;;;16.54;100.00
28448;BME280;15675;52.870;-1.416;2022-08-16T04:25:35;100131.84;;;16.53;100.00
28448;BME280;15675;52.870;-1.416;2022-08-16T04:28:01;100125.72;;;16.54;100.00
28448;BME280;15675;52.870;-1.416;2022-08-16T04:30:27;100130.13;;;16.53;100.00
28448;BME280;15675;52.870;-1.416;2022-08-16T04:32:53;100133.78;;;16.48;100.00
28448;BME280;15675;52.870;-1.416;2022-08-16T04:35:21;100129.44;;;16.47;100.00
28448;BME280;15675;52.870;-1.416;2022-08-16T04:37:49;100135.75;;;16.39;100.00
28448;BME280;15675;52.870;-1.416;2022-08-16T04:40:16;100136.00;;;16.32;100.00
28448;BME280;15675;52.870;-1.416;2022-08-16T04:42:43;100137.44;;;16.42;100.00
28448;BME280;15675;52.870;-1.416;2022-08-16T04:45:12;100139.75;;;16.51;100.00
28448;BME280;15675;52.870;-1.416;2022-08-16T04:47:38;100144.09;;;16.52;100.00
28448;BME280;15675;52.870;-1.416;2022-08-16T04:50:27;100145.63;;;16.60;100.00
28448;BME280;15675;52.870;-1.416;2022-08-16T04:52:52;100137.69;;;16.63;100.00
28448;BME280;15675;52.870;-1.416;2022-08-16T04:55:21;100134.25;;;16.61;100.00
28448;BME280;15675;52.870;-1.416;2022-08-16T04:57:50;100137.72;;;16.61;100.00
28448;BME280;15675;52.870;-1.416;2022-08-16T05:00:19;100136.88;;;16.61;100.00
28448;BME280;15675;52.870;-1.416;2022-08-16T05:02:48;100139.81;;;16.50;100.00
28448;BME280;15675;52.870;-1.416;2022-08-16T05:05:14;100135.66;;;16.43;100.00
28448;BME280;15675;52.870;-1.416;2022-08-16T05:07:41;100136.41;;;16.48;100.00
28448;BME280;15675;52.870;-1.416;2022-08-16T05:10:08;100139.53;;;16.59;100.00
28448;BME280;15675;52.870;-1.416;2022-08-16T05:12:35;100140.94;;;16.71;100.00
28448;BME280;15675;52.870;-1.416;2022-08-16T05:15:01;100145.91;;;16.79;100.00
28448;BME280;15675;52.870;-1.416;2022-08-16T05:17:27;100143.66;;;16.68;100.00
28448;BME280;15675;52.870;-1.416;2022-08-16T05:19:53;100141.06;;;16.66;100.00
28448;BME280;15675;52.870;-1.416;2022-08-16T05:22:19;100142.03;;;16.64;100.00
28448;BME280;15675;52.870;-1.416;2022-08-16T05:24:45;100141.34;;;16.57;100.00
28448;BME280;15675;52.870;-1.416;2022-08-16T05:27:10;100137.78;;;16.60;100.00
28448;BME280;15675;52.870;-1.416;2022-08-16T05:29:36;100138.66;;;16.59;100.00
28448;BME280;15675;52.870;-1.416;2022-08-16T05:32:02;100133.97;;;16.70;100.00
28448;BME280;15675;52.870;-1.416;2022-08-16T05:34:28;100138.22;;;16.74;100.00
28448;BME280;15675;52.870;-1.416;2022-08-16T05:36:54;100147.88;;;16.72;100.00
28448;BME280;15675;52.870;-1.416;2022-08-16T05:39:25;100139.56;;;16.87;100.00
28448;BME280;15675;52.870;-1.416;2022-08-16T05:41:52;100141.84;;;16.98;100.00
28448;BME280;15675;52.870;-1.416;2022-08-16T05:44:19;100132.94;;;17.04;100.00
28448;BME280;15675;52.870;-1.416;2022-08-16T05:46:46;100130.69;;;16.93;100.00
28448;BME280;15675;52.870;-1.416;2022-08-16T05:49:12;100137.44;;;17.00;100.00
28448;BME280;15675;52.870;-1.416;2022-08-16T05:51:45;100138.34;;;16.99;100.00
28448;BME280;15675;52.870;-1.416;2022-08-16T05:54:13;100144.56;;;16.95;100.00
28448;BME280;15675;52.870;-1.416;2022-08-16T05:56:42;100141.69;;;17.03;100.00
28448;BME280;15675;52.870;-1.416;2022-08-16T05:59:11;100148.09;;;16.94;100.00
28448;BME280;15675;52.870;-1.416;2022-08-16T06:01:38;100146.88;;;17.06;100.00
28448;BME280;15675;52.870;-1.416;2022-08-16T06:04:06;100160.03;;;17.03;100.00
28448;BME280;15675;52.870;-1.416;2022-08-16T06:06:32;100162.53;;;17.07;100.00
28448;BME280;15675;52.870;-1.416;2022-08-16T06:08:58;100157.66;;;17.23;100.00
28448;BME280;15675;52.870;-1.416;2022-08-16T06:11:23;100159.25;;;17.54;100.00
28448;BME280;15675;52.870;-1.416;2022-08-16T06:13:49;100157.06;;;17.67;100.00
28448;BME280;15675;52.870;-1.416;2022-08-16T06:16:15;100156.09;;;18.20;100.00
28448;BME280;15675;52.870;-1.416;2022-08-16T06:18:40;100156.50;;;18.33;100.00
28448;BME280;15675;52.870;-1.416;2022-08-16T06:21:10;100156.78;;;18.49;100.00
28448;BME280;15675;52.870;-1.416;2022-08-16T06:23:36;100149.09;;;18.67;100.00
28448;BME280;15675;52.870;-1.416;2022-08-16T06:26:02;100158.38;;;19.21;100.00
28448;BME280;15675;52.870;-1.416;2022-08-16T06:28:28;100155.22;;;19.34;100.00
28448;BME280;15675;52.870;-1.416;2022-08-16T06:30:54;100156.69;;;19.61;100.00
28448;BME280;15675;52.870;-1.416;2022-08-16T06:33:20;100147.81;;;19.64;100.00
28448;BME280;15675;52.870;-1.416;2022-08-16T06:35:45;100150.09;;;19.92;100.00
28448;BME280;15675;52.870;-1.416;2022-08-16T06:38:11;100147.38;;;20.14;100.00
28448;BME280;15675;52.870;-1.416;2022-08-16T06:40:37;100146.00;;;19.87;100.00
28448;BME280;15675;52.870;-1.416;2022-08-16T06:43:03;100136.53;;;19.60;100.00
28448;BME280;15675;52.870;-1.416;2022-08-16T06:45:29;100137.47;;;19.59;100.00
28448;BME280;15675;52.870;-1.416;2022-08-16T06:47:55;100149.88;;;19.35;100.00
28448;BME280;15675;52.870;-1.416;2022-08-16T06:50:21;100149.38;;;19.05;100.00
28448;BME280;15675;52.870;-1.416;2022-08-16T06:52:47;100159.66;;;18.89;100.00
28448;BME280;15675;52.870;-1.416;2022-08-16T06:55:14;100159.53;;;18.92;100.00
28448;BME280;15675;52.870;-1.416;2022-08-16T06:57:40;100160.31;;;18.94;100.00
28448;BME280;15675;52.870;-1.416;2022-08-16T07:00:08;100156.50;;;19.23;100.00
28448;BME280;15675;52.870;-1.416;2022-08-16T07:02:41;100162.47;;;19.06;100.00
28448;BME280;15675;52.870;-1.416;2022-08-16T07:05:08;100156.31;;;19.28;100.00
28448;BME280;15675;52.870;-1.416;2022-08-16T07:07:34;100157.91;;;19.32;100.00
28448;BME280;15675;52.870;-1.416;2022-08-16T07:10:00;100152.09;;;18.79;100.00
28448;BME280;15675;52.870;-1.416;2022-08-16T07:12:26;100153.56;;;18.41;100.00
28448;BME280;15675;52.870;-1.416;2022-08-16T07:14:51;100156.09;;;18.20;100.00
28448;BME280;15675;52.870;-1.416;2022-08-16T07:17:18;100155.22;;;18.20;100.00
28448;BME280;15675;52.870;-1.416;2022-08-16T07:19:46;100163.63;;;18.06;100.00
28448;BME280;15675;52.870;-1.416;2022-08-16T07:22:11;100164.34;;;18.09;100.00
28448;BME280;15675;52.870;-1.416;2022-08-16T07:24:37;100168.16;;;18.26;100.00
28448;BME280;15675;52.870;-1.416;2022-08-16T07:27:04;100169.63;;;18.33;100.00
28448;BME280;15675;52.870;-1.416;2022-08-16T07:29:30;100177.22;;;18.41;100.00
28448;BME280;15675;52.870;-1.416;2022-08-16T07:31:56;100176.19;;;18.45;100.00
28448;BME280;15675;52.870;-1.416;2022-08-16T07:34:22;100179.25;;;18.56;100.00
28448;BME280;15675;52.870;-1.416;2022-08-16T07:36:48;100176.69;;;18.78;100.00
28448;BME280;15675;52.870;-1.416;2022-08-16T07:39:14;100180.22;;;19.01;100.00
28448;BME280;15675;52.870;-1.416;2022-08-16T07:41:40;100177.56;;;19.23;100.00
28448;BME280;15675;52.870;-1.416;2022-08-16T07:44:05;100173.25;;;19.43;100.00
28448;BME280;15675;52.870;-1.416;2022-08-16T07:46:32;100177.59;;;19.44;100.00
28448;BME280;15675;52.870;-1.416;2022-08-16T07:48:57;100173.63;;;19.34;100.00
28448;BME280;15675;52.870;-1.416;2022-08-16T07:51:23;100178.72;;;19.81;100.00
28448;BME280;15675;52.870;-1.416;2022-08-16T07:53:49;100181.97;;;19.86;100.00
28448;BME280;15675;52.870;-1.416;2022-08-16T07:56:18;100183.03;;;19.82;100.00
28448;BME280;15675;52.870;-1.416;2022-08-16T07:58:45;100180.09;;;19.90;100.00
28448;BME280;15675;52.870;-1.416;2022-08-16T08:01:12;100188.44;;;19.79;100.00
28448;BME280;15675;52.870;-1.416;2022-08-16T08:03:39;100190.56;;;19.91;100.00
28448;BME280;15675;52.870;-1.416;2022-08-16T08:06:05;100184.63;;;20.07;100.00
28448;BME280;15675;52.870;-1.416;2022-08-16T08:08:31;100190.19;;;20.20;100.00
28448;BME280;15675;52.870;-1.416;2022-08-16T08:10:57;100194.25;;;20.27;100.00
28448;BME280;15675;52.870;-1.416;2022-08-16T08:13:23;100195.47;;;19.99;100.00
28448;BME280;15675;52.870;-1.416;2022-08-16T08:15:49;100195.00;;;19.89;100.00
28448;BME280;15675;52.870;-1.416;2022-08-16T08:18:15;100195.31;;;20.23;100.00
28448;BME280;15675;52.870;-1.416;2022-08-16T08:20:41;100195.38;;;20.21;100.00
28448;BME280;15675;52.870;-1.416;2022-08-16T08:23:11;100191.94;;;20.19;100.00
28448;BME280;15675;52.870;-1.416;2022-08-16T08:25:39;100193.13;;;20.32;100.00
28448;BME280;15675;52.870;-1.416;2022-08-16T08:28:05;100197.13;;;20.60;100.00
28448;BME280;15675;52.870;-1.416;2022-08-16T08:30:32;100199.63;;;21.01;100.00
28448;BME280;15675;52.870;-1.416;2022-08-16T08:32:58;100203.44;;;21.13;100.00
28448;BME280;15675;52.870;-1.416;2022-08-16T08:35:25;100202.16;;;20.85;100.00
28448;BME280;15675;52.870;-1.416;2022-08-16T08:37:51;100204.16;;;21.17;100.00
28448;BME280;15675;52.870;-1.416;2022-08-16T08:40:20;100204.34;;;21.31;100.00
28448;BME280;15675;52.870;-1.416;2022-08-16T08:42:47;100201.19;;;21.42;100.00
28448;BME280;15675;52.870;-1.416;2022-08-16T08:45:13;100204.63;;;20.89;99.86
28448;BME280;15675;52.870;-1.416;2022-08-16T08:47:42;100209.94;;;20.49;100.00
28448;BME280;15675;52.870;-1.416;2022-08-16T08:50:11;100202.09;;;20.68;100.00
28448;BME280;15675;52.870;-1.416;2022-08-16T08:52:37;100211.09;;;20.62;100.00
28448;BME280;15675;52.870;-1.416;2022-08-16T08:55:08;100212.16;;;20.58;100.00
28448;BME280;15675;52.870;-1.416;2022-08-16T08:57:34;100223.41;;;20.43;100.00
28448;BME280;15675;52.870;-1.416;2022-08-16T08:59:59;100221.69;;;20.42;100.00
28448;BME280;15675;52.870;-1.416;2022-08-16T09:02:25;100218.31;;;20.97;100.00
28448;BME280;15675;52.870;-1.416;2022-08-16T09:04:51;100229.22;;;20.89;100.00
28448;BME280;15675;52.870;-1.416;2022-08-16T09:07:17;100228.56;;;21.03;100.00
28448;BME280;15675;52.870;-1.416;2022-08-16T09:09:43;100231.78;;;21.10;100.00
28448;BME280;15675;52.870;-1.416;2022-08-16T09:12:09;100234.69;;;21.40;99.03
28448;BME280;15675;52.870;-1.416;2022-08-16T09:14:36;100238.72;;;21.30;98.13
28448;BME280;15675;52.870;-1.416;2022-08-16T09:17:04;100237.91;;;21.10;98.64
28448;BME280;15675;52.870;-1.416;2022-08-16T09:19:32;100228.97;;;21.49;97.15
28448;BME280;15675;52.870;-1.416;2022-08-16T09:21:57;100230.19;;;21.61;96.41
28448;BME280;15675;52.870;-1.416;2022-08-16T09:24:23;100226.28;;;21.68;94.89
28448;BME280;15675;52.870;-1.416;2022-08-16T09:26:49;100230.75;;;21.68;94.28
28448;BME280;15675;52.870;-1.416;2022-08-16T09:29:15;100232.34;;;21.53;93.84
28448;BME280;15675;52.870;-1.416;2022-08-16T09:31:41;100241.13;;;21.34;95.56
28448;BME280;15675;52.870;-1.416;2022-08-16T09:34:08;100240.25;;;21.70;95.31
28448;BME280;15675;52.870;-1.416;2022-08-16T09:36:33;100245.38;;;21.56;94.48
28448;BME280;15675;52.870;-1.416;2022-08-16T09:38:59;100240.19;;;21.54;94.10
28448;BME280;15675;52.870;-1.416;2022-08-16T09:41:27;100240.28;;;21.88;92.88
28448;BME280;15675;52.870;-1.416;2022-08-16T09:43:54;100241.31;;;22.19;90.19
28448;BME280;15675;52.870;-1.416;2022-08-16T09:46:19;100242.09;;;22.38;87.51
28448;BME280;15675;52.870;-1.416;2022-08-16T09:48:46;100243.69;;;22.58;86.17
28448;BME280;15675;52.870;-1.416;2022-08-16T09:51:12;100243.13;;;22.85;84.70
28448;BME280;15675;52.870;-1.416;2022-08-16T09:53:38;100236.28;;;22.65;83.93
28448;BME280;15675;52.870;-1.416;2022-08-16T09:56:14;100237.06;;;22.83;85.81
28448;BME280;15675;52.870;-1.416;2022-08-16T09:58:40;100239.72;;;23.15;83.63
28448;BME280;15675;52.870;-1.416;2022-08-16T10:01:06;100236.44;;;23.42;81.68
28448;BME280;15675;52.870;-1.416;2022-08-16T10:03:32;100233.00;;;23.56;79.00
28448;BME280;15675;52.870;-1.416;2022-08-16T10:05:57;100231.50;;;23.36;79.12
28448;BME280;15675;52.870;-1.416;2022-08-16T10:08:23;100239.81;;;22.82;81.55
28448;BME280;15675;52.870;-1.416;2022-08-16T10:10:49;100236.13;;;23.00;81.94
28448;BME280;15675;52.870;-1.416;2022-08-16T10:13:33;100243.13;;;23.33;80.35
28448;BME280;15675;52.870;-1.416;2022-08-16T10:15:59;100241.00;;;23.24;78.21
28448;BME280;15675;52.870;-1.416;2022-08-16T10:18:27;100240.88;;;23.41;77.99
28448;BME280;15675;52.870;-1.416;2022-08-16T10:20:55;100228.84;;;23.52;77.08
28448;BME280;15675;52.870;-1.416;2022-08-16T10:23:22;100233.09;;;22.74;80.44
28448;BME280;15675;52.870;-1.416;2022-08-16T10:25:48;100225.63;;;22.83;81.59
28448;BME280;15675;52.870;-1.416;2022-08-16T10:28:15;100228.13;;;23.18;79.74
28448;BME280;15675;52.870;-1.416;2022-08-16T10:30:42;100229.22;;;23.60;78.25
28448;BME280;15675;52.870;-1.416;2022-08-16T10:33:12;100224.34;;;23.83;77.94
28448;BME280;15675;52.870;-1.416;2022-08-16T10:35:43;100220.88;;;23.52;76.24
28448;BME280;15675;52.870;-1.416;2022-08-16T10:38:10;100217.91;;;23.72;75.41
28448;BME280;15675;52.870;-1.416;2022-08-16T10:40:39;100216.69;;;23.78;74.90
28448;BME280;15675;52.870;-1.416;2022-08-16T10:43:05;100220.94;;;22.88;77.18
28448;BME280;15675;52.870;-1.416;2022-08-16T10:45:32;100218.94;;;22.91;78.99
28448;BME280;15675;52.870;-1.416;2022-08-16T10:47:58;100222.63;;;22.73;80.01
28448;BME280;15675;52.870;-1.416;2022-08-16T10:50:25;100214.94;;;22.84;80.39
28448;BME280;15675;52.870;-1.416;2022-08-16T10:52:51;100216.84;;;23.30;78.81
28448;BME280;15675;52.870;-1.416;2022-08-16T10:55:19;100213.63;;;23.70;76.74
28448;BME280;15675;52.870;-1.416;2022-08-16T10:57:46;100217.03;;;23.88;74.61
28448;BME280;15675;52.870;-1.416;2022-08-16T11:00:15;100216.78;;;23.76;74.79
28448;BME280;15675;52.870;-1.416;2022-08-16T11:02:42;100213.72;;;23.68;75.83
28448;BME280;15675;52.870;-1.416;2022-08-16T11:05:10;100215.16;;;23.13;77.43
28448;BME280;15675;52.870;-1.416;2022-08-16T11:07:40;100215.38;;;22.92;78.77
28448;BME280;15675;52.870;-1.416;2022-08-16T11:10:07;100216.59;;;23.19;79.05
28448;BME280;15675;52.870;-1.416;2022-08-16T11:12:33;100219.34;;;23.48;77.56
28448;BME280;15675;52.870;-1.416;2022-08-16T11:14:59;100217.22;;;23.38;76.95
28448;BME280;15675;52.870;-1.416;2022-08-16T11:17:24;100226.81;;;22.93;77.71
28448;BME280;15675;52.870;-1.416;2022-08-16T11:19:51;100225.19;;;23.06;79.46
28448;BME280;15675;52.870;-1.416;2022-08-16T11:22:16;100219.84;;;23.54;77.38
28448;BME280;15675;52.870;-1.416;2022-08-16T11:24:43;100222.81;;;23.94;75.59
28448;BME280;15675;52.870;-1.416;2022-08-16T11:27:17;100217.72;;;24.06;73.23
28448;BME280;15675;52.870;-1.416;2022-08-16T11:29:43;100218.00;;;23.40;75.35
28448;BME280;15675;52.870;-1.416;2022-08-16T11:32:09;100227.50;;;23.29;77.42
28448;BME280;15675;52.870;-1.416;2022-08-16T11:34:35;100219.69;;;23.41;76.09
28448;BME280;15675;52.870;-1.416;2022-08-16T11:37:01;100220.38;;;23.45;75.70
28448;BME280;15675;52.870;-1.416;2022-08-16T11:39:30;100231.84;;;23.30;75.74
28448;BME280;15675;52.870;-1.416;2022-08-16T11:41:56;100226.31;;;23.18;75.92
28448;BME280;15675;52.870;-1.416;2022-08-16T11:44:23;100228.31;;;23.75;74.55
28448;BME280;15675;52.870;-1.416;2022-08-16T11:46:49;100240.00;;;23.57;73.14
28448;BME280;15675;52.870;-1.416;2022-08-16T11:49:15;100240.50;;;23.33;74.65
28448;BME280;15675;52.870;-1.416;2022-08-16T11:51:42;100241.94;;;23.23;75.40
28448;BME280;15675;52.870;-1.416;2022-08-16T11:54:09;100240.00;;;23.57;74.29
28448;BME280;15675;52.870;-1.416;2022-08-16T11:56:35;100237.63;;;23.52;75.51
28448;BME280;15675;52.870;-1.416;2022-08-16T11:59:02;100241.53;;;23.61;73.68
28448;BME280;15675;52.870;-1.416;2022-08-16T12:01:28;100242.53;;;23.74;72.44
28448;BME280;15675;52.870;-1.416;2022-08-16T12:03:53;100234.19;;;24.11;71.40
28448;BME280;15675;52.870;-1.416;2022-08-16T12:06:19;100235.63;;;24.17;70.32
28448;BME280;15675;52.870;-1.416;2022-08-16T12:08:45;100240.94;;;23.86;71.83
28448;BME280;15675;52.870;-1.416;2022-08-16T12:11:12;100247.19;;;23.85;71.51
28448;BME280;15675;52.870;-1.416;2022-08-16T12:13:40;100247.63;;;23.47;72.97
28448;BME280;15675;52.870;-1.416;2022-08-16T12:16:08;100256.00;;;23.86;72.67
28448;BME280;15675;52.870;-1.416;2022-08-16T12:18:35;100246.72;;;24.38;70.50
28448;BME280;15675;52.870;-1.416;2022-08-16T12:21:01;100246.81;;;24.65;68.21
28448;BME280;15675;52.870;-1.416;2022-08-16T12:23:27;100250.19;;;24.96;67.02
28448;BME280;15675;52.870;-1.416;2022-08-16T12:25:53;100254.19;;;24.89;66.60
28448;BME280;15675;52.870;-1.416;2022-08-16T12:28:19;100256.22;;;23.97;69.98
28448;BME280;15675;52.870;-1.416;2022-08-16T12:30:45;100247.53;;;24.24;70.27
28448;BME280;15675;52.870;-1.416;2022-08-16T12:33:13;100248.03;;;24.45;69.72
28448;BME280;15675;52.870;-1.416;2022-08-16T12:35:45;100246.41;;;24.57;69.29
28448;BME280;15675;52.870;-1.416;2022-08-16T12:38:12;100250.41;;;24.93;67.89
28448;BME280;15675;52.870;-1.416;2022-08-16T12:40:40;100252.97;;;24.80;67.72
28448;BME280;15675;52.870;-1.416;2022-08-16T12:43:09;100254.75;;;24.51;68.24